sensor_id;sensor_type;location;lat;lon;timestamp;P1;durP1;ratioP1;P2;durP2;ratioP2
71166;SDS011;58864;45.928;20.078;2022-07-30T00:01:19;10.40;;;5.47;;
71166;SDS011;58864;45.928;20.078;2022-07-30T00:03:44;11.07;;;5.33;;
71166;SDS011;58864;45.928;20.078;2022-07-30T00:06:08;12.30;;;5.60;;
71166;SDS011;58864;45.928;20.078;2022-07-30T00:08:33;12.75;;;6.28;;
71166;SDS011;58864;45.928;20.078;2022-07-30T00:10:57;12.13;;;5.13;;
71166;SDS011;58864;45.928;20.078;2022-07-30T00:13:22;10.23;;;4.90;;
71166;SDS011;58864;45.928;20.078;2022-07-30T00:15:46;10.68;;;4.82;;
71166;SDS011;58864;45.928;20.078;2022-07-30T00:18:11;8.87;;;4.67;;
71166;SDS011;58864;45.928;20.078;2022-07-30T00:20:36;10.77;;;4.50;;
71166;SDS011;58864;45.928;20.078;2022-07-30T00:23:03;13.60;;;6.75;;
71166;SDS011;58864;45.928;20.078;2022-07-30T00:25:28;11.33;;;5.37;;
71166;SDS011;58864;45.928;20.078;2022-07-30T00:27:52;9.45;;;4.75;;
71166;SDS011;58864;45.928;20.078;2022-07-30T00:30:17;11.97;;;5.03;;
71166;SDS011;58864;45.928;20.078;2022-07-30T00:32:41;8.43;;;4.80;;
71166;SDS011;58864;45.928;20.078;2022-07-30T00:35:05;9.87;;;5.50;;
71166;SDS011;58864;45.928;20.078;2022-07-30T00:37:30;10.48;;;4.78;;
71166;SDS011;58864;45.928;20.078;2022-07-30T00:39:55;8.98;;;4.55;;
71166;SDS011;58864;45.928;20.078;2022-07-30T00:42:19;9.03;;;4.73;;
71166;SDS011;58864;45.928;20.078;2022-07-30T00:44:48;11.45;;;5.60;;
71166;SDS011;58864;45.928;20.078;2022-07-30T00:47:13;10.33;;;5.20;;
71166;SDS011;58864;45.928;20.078;2022-07-30T00:49:37;8.20;;;4.53;;
71166;SDS011;58864;45.928;20.078;2022-07-30T00:52:02;9.13;;;5.13;;
71166;SDS011;58864;45.928;20.078;2022-07-30T00:54:26;11.13;;;5.00;;
71166;SDS011;58864;45.928;20.078;2022-07-30T00:56:51;11.17;;;4.90;;
71166;SDS011;58864;45.928;20.078;2022-07-30T00:59:15;10.27;;;5.28;;
71166;SDS011;58864;45.928;20.078;2022-07-30T01:01:40;10.60;;;5.87;;
71166;SDS011;58864;45.928;20.078;2022-07-30T01:04:05;9.55;;;5.45;;
71166;SDS011;58864;45.928;20.078;2022-07-30T01:06:34;13.30;;;5.50;;
71166;SDS011;58864;45.928;20.078;2022-07-30T01:08:59;9.60;;;5.27;;
71166;SDS011;58864;45.928;20.078;2022-07-30T01:11:26;13.83;;;5.90;;
71166;SDS011;58864;45.928;20.078;2022-07-30T01:13:54;11.73;;;5.78;;
71166;SDS011;58864;45.928;20.078;2022-07-30T01:16:19;10.37;;;5.20;;
71166;SDS011;58864;45.928;20.078;2022-07-30T01:18:44;10.85;;;5.65;;
71166;SDS011;58864;45.928;20.078;2022-07-30T01:21:33;11.05;;;5.60;;
71166;SDS011;58864;45.928;20.078;2022-07-30T01:24:01;14.68;;;5.72;;
71166;SDS011;58864;45.928;20.078;2022-07-30T01:26:51;10.35;;;5.05;;
71166;SDS011;58864;45.928;20.078;2022-07-30T01:29:16;10.97;;;5.63;;
71166;SDS011;58864;45.928;20.078;2022-07-30T01:31:42;10.52;;;4.95;;
71166;SDS011;58864;45.928;20.078;2022-07-30T01:34:07;10.68;;;5.47;;
71166;SDS011;58864;45.928;20.078;2022-07-30T01:36:32;10.82;;;5.60;;
71166;SDS011;58864;45.928;20.078;2022-07-30T01:38:57;9.40;;;5.10;;
71166;SDS011;58864;45.928;20.078;2022-07-30T01:41:23;10.80;;;4.65;;
71166;SDS011;58864;45.928;20.078;2022-07-30T01:43:47;9.57;;;5.20;;
71166;SDS011;58864;45.928;20.078;2022-07-30T01:46:12;10.40;;;4.87;;
71166;SDS011;58864;45.928;20.078;2022-07-30T01:48:38;9.93;;;4.80;;
71166;SDS011;58864;45.928;20.078;2022-07-30T01:51:04;10.97;;;4.53;;
71166;SDS011;58864;45.928;20.078;2022-07-30T01:53:30;8.75;;;5.00;;
71166;SDS011;58864;45.928;20.078;2022-07-30T01:55:56;9.40;;;5.00;;
71166;SDS011;58864;45.928;20.078;2022-07-30T01:58:23;10.00;;;4.93;;
71166;SDS011;58864;45.928;20.078;2022-07-30T02:00:50;11.38;;;5.10;;
71166;SDS011;58864;45.928;20.078;2022-07-30T02:03:15;9.90;;;5.00;;
71166;SDS011;58864;45.928;20.078;2022-07-30T02:05:40;9.30;;;5.43;;
71166;SDS011;58864;45.928;20.078;2022-07-30T02:08:10;12.95;;;5.55;;
71166;SDS011;58864;45.928;20.078;2022-07-30T02:13:05;10.40;;;5.35;;
71166;SDS011;58864;45.928;20.078;2022-07-30T02:15:32;11.38;;;5.20;;
71166;SDS011;58864;45.928;20.078;2022-07-30T02:20:26;9.02;;;5.07;;
71166;SDS011;58864;45.928;20.078;2022-07-30T02:22:52;9.73;;;4.97;;
71166;SDS011;58864;45.928;20.078;2022-07-30T02:25:19;8.73;;;4.90;;
71166;SDS011;58864;45.928;20.078;2022-07-30T02:27:44;8.70;;;4.50;;
71166;SDS011;58864;45.928;20.078;2022-07-30T02:30:12;9.73;;;5.22;;
71166;SDS011;58864;45.928;20.078;2022-07-30T02:32:37;10.30;;;5.27;;
71166;SDS011;58864;45.928;20.078;2022-07-30T02:35:08;10.57;;;4.80;;
71166;SDS011;58864;45.928;20.078;2022-07-30T02:37:37;9.60;;;4.75;;
71166;SDS011;58864;45.928;20.078;2022-07-30T02:40:02;12.20;;;5.20;;
71166;SDS011;58864;45.928;20.078;2022-07-30T02:42:27;11.90;;;5.27;;
71166;SDS011;58864;45.928;20.078;2022-07-30T02:44:53;10.68;;;5.20;;
71166;SDS011;58864;45.928;20.078;2022-07-30T02:47:18;10.02;;;5.10;;
71166;SDS011;58864;45.928;20.078;2022-07-30T02:49:45;9.68;;;5.05;;
71166;SDS011;58864;45.928;20.078;2022-07-30T02:52:11;10.30;;;5.03;;
71166;SDS011;58864;45.928;20.078;2022-07-30T02:54:36;9.75;;;5.57;;
71166;SDS011;58864;45.928;20.078;2022-07-30T02:57:02;10.30;;;4.90;;
71166;SDS011;58864;45.928;20.078;2022-07-30T02:59:27;10.82;;;5.35;;
71166;SDS011;58864;45.928;20.078;2022-07-30T03:01:53;10.07;;;4.80;;
71166;SDS011;58864;45.928;20.078;2022-07-30T03:04:19;10.23;;;5.00;;
71166;SDS011;58864;45.928;20.078;2022-07-30T03:06:44;9.13;;;4.90;;
71166;SDS011;58864;45.928;20.078;2022-07-30T03:09:09;11.30;;;5.10;;
71166;SDS011;58864;45.928;20.078;2022-07-30T03:11:34;11.57;;;5.70;;
71166;SDS011;58864;45.928;20.078;2022-07-30T03:13:59;10.50;;;5.47;;
71166;SDS011;58864;45.928;20.078;2022-07-30T03:16:24;10.57;;;5.83;;
71166;SDS011;58864;45.928;20.078;2022-07-30T03:18:49;13.80;;;5.83;;
71166;SDS011;58864;45.928;20.078;2022-07-30T03:21:16;10.45;;;5.53;;
71166;SDS011;58864;45.928;20.078;2022-07-30T03:23:41;11.15;;;5.90;;
71166;SDS011;58864;45.928;20.078;2022-07-30T03:26:07;10.98;;;5.85;;
71166;SDS011;58864;45.928;20.078;2022-07-30T03:28:33;12.00;;;5.20;;
71166;SDS011;58864;45.928;20.078;2022-07-30T03:31:02;9.53;;;5.23;;
71166;SDS011;58864;45.928;20.078;2022-07-30T03:33:27;10.75;;;5.60;;
71166;SDS011;58864;45.928;20.078;2022-07-30T03:35:52;9.15;;;4.95;;
71166;SDS011;58864;45.928;20.078;2022-07-30T03:38:17;9.93;;;5.33;;
71166;SDS011;58864;45.928;20.078;2022-07-30T03:40:43;9.18;;;5.40;;
71166;SDS011;58864;45.928;20.078;2022-07-30T03:43:09;10.63;;;5.65;;
71166;SDS011;58864;45.928;20.078;2022-07-30T03:45:35;12.38;;;6.07;;
71166;SDS011;58864;45.928;20.078;2022-07-30T03:48:00;10.07;;;5.63;;
71166;SDS011;58864;45.928;20.078;2022-07-30T03:50:26;10.40;;;5.67;;
71166;SDS011;58864;45.928;20.078;2022-07-30T03:52:51;11.50;;;6.60;;
71166;SDS011;58864;45.928;20.078;2022-07-30T03:55:15;12.32;;;5.53;;
71166;SDS011;58864;45.928;20.078;2022-07-30T03:57:40;10.07;;;5.87;;
71166;SDS011;58864;45.928;20.078;2022-07-30T04:00:11;10.67;;;5.60;;
71166;SDS011;58864;45.928;20.078;2022-07-30T04:02:46;11.05;;;6.30;;
71166;SDS011;58864;45.928;20.078;2022-07-30T04:05:11;12.55;;;6.35;;
71166;SDS011;58864;45.928;20.078;2022-07-30T04:07:36;12.38;;;6.45;;
71166;SDS011;58864;45.928;20.078;2022-07-30T04:10:00;11.60;;;6.03;;
71166;SDS011;58864;45.928;20.078;2022-07-30T04:12:25;13.85;;;6.13;;
71166;SDS011;58864;45.928;20.078;2022-07-30T04:14:49;11.00;;;5.73;;
71166;SDS011;58864;45.928;20.078;2022-07-30T04:17:21;13.37;;;6.50;;
71166;SDS011;58864;45.928;20.078;2022-07-30T04:19:53;10.98;;;6.32;;
71166;SDS011;58864;45.928;20.078;2022-07-30T04:22:22;13.15;;;6.45;;
71166;SDS011;58864;45.928;20.078;2022-07-30T04:24:50;13.00;;;6.80;;
71166;SDS011;58864;45.928;20.078;2022-07-30T04:27:15;12.87;;;6.43;;
71166;SDS011;58864;45.928;20.078;2022-07-30T04:29:40;12.15;;;6.07;;
71166;SDS011;58864;45.928;20.078;2022-07-30T04:32:05;11.10;;;5.80;;
71166;SDS011;58864;45.928;20.078;2022-07-30T04:34:31;11.25;;;5.78;;
71166;SDS011;58864;45.928;20.078;2022-07-30T04:36:56;11.93;;;6.13;;
71166;SDS011;58864;45.928;20.078;2022-07-30T04:39:20;12.77;;;6.47;;
71166;SDS011;58864;45.928;20.078;2022-07-30T04:41:45;11.67;;;7.10;;
71166;SDS011;58864;45.928;20.078;2022-07-30T04:44:09;13.88;;;6.65;;
71166;SDS011;58864;45.928;20.078;2022-07-30T04:46:34;12.67;;;6.13;;
71166;SDS011;58864;45.928;20.078;2022-07-30T04:48:58;11.93;;;5.43;;
71166;SDS011;58864;45.928;20.078;2022-07-30T04:51:27;11.55;;;6.35;;
71166;SDS011;58864;45.928;20.078;2022-07-30T04:53:55;15.00;;;6.20;;
71166;SDS011;58864;45.928;20.078;2022-07-30T04:56:20;11.05;;;6.40;;
71166;SDS011;58864;45.928;20.078;2022-07-30T04:58:45;13.80;;;7.00;;
71166;SDS011;58864;45.928;20.078;2022-07-30T05:01:10;11.83;;;6.40;;
71166;SDS011;58864;45.928;20.078;2022-07-30T05:03:35;12.93;;;6.22;;
71166;SDS011;58864;45.928;20.078;2022-07-30T05:06:00;12.43;;;6.68;;
71166;SDS011;58864;45.928;20.078;2022-07-30T05:08:25;13.77;;;6.35;;
71166;SDS011;58864;45.928;20.078;2022-07-30T05:10:51;12.40;;;6.85;;
71166;SDS011;58864;45.928;20.078;2022-07-30T05:13:15;14.80;;;6.50;;
71166;SDS011;58864;45.928;20.078;2022-07-30T05:15:40;12.37;;;5.77;;
71166;SDS011;58864;45.928;20.078;2022-07-30T05:18:05;11.88;;;6.30;;
71166;SDS011;58864;45.928;20.078;2022-07-30T05:20:30;10.65;;;5.80;;
71166;SDS011;58864;45.928;20.078;2022-07-30T05:22:54;13.63;;;6.67;;
71166;SDS011;58864;45.928;20.078;2022-07-30T05:25:18;11.50;;;6.53;;
71166;SDS011;58864;45.928;20.078;2022-07-30T05:27:43;15.10;;;6.65;;
71166;SDS011;58864;45.928;20.078;2022-07-30T05:30:07;14.80;;;6.50;;
71166;SDS011;58864;45.928;20.078;2022-07-30T05:32:32;13.70;;;6.57;;
71166;SDS011;58864;45.928;20.078;2022-07-30T05:34:57;13.67;;;5.90;;
71166;SDS011;58864;45.928;20.078;2022-07-30T05:37:22;12.48;;;6.03;;
71166;SDS011;58864;45.928;20.078;2022-07-30T05:39:46;17.13;;;8.40;;
71166;SDS011;58864;45.928;20.078;2022-07-30T05:42:11;12.17;;;6.90;;
71166;SDS011;58864;45.928;20.078;2022-07-30T05:44:35;11.30;;;6.00;;
71166;SDS011;58864;45.928;20.078;2022-07-30T05:47:00;13.00;;;7.10;;
71166;SDS011;58864;45.928;20.078;2022-07-30T05:49:24;12.77;;;6.60;;
71166;SDS011;58864;45.928;20.078;2022-07-30T05:51:48;14.17;;;6.80;;
71166;SDS011;58864;45.928;20.078;2022-07-30T05:54:13;12.63;;;7.20;;
71166;SDS011;58864;45.928;20.078;2022-07-30T05:56:37;13.73;;;7.27;;
71166;SDS011;58864;45.928;20.078;2022-07-30T05:59:03;15.30;;;8.10;;
71166;SDS011;58864;45.928;20.078;2022-07-30T06:01:28;12.60;;;7.17;;
71166;SDS011;58864;45.928;20.078;2022-07-30T06:03:52;13.47;;;7.77;;
71166;SDS011;58864;45.928;20.078;2022-07-30T06:06:17;14.13;;;7.28;;
71166;SDS011;58864;45.928;20.078;2022-07-30T06:08:42;16.13;;;8.37;;
71166;SDS011;58864;45.928;20.078;2022-07-30T06:11:07;14.90;;;7.47;;
71166;SDS011;58864;45.928;20.078;2022-07-30T06:13:31;11.82;;;7.10;;
71166;SDS011;58864;45.928;20.078;2022-07-30T06:15:56;14.50;;;7.67;;
71166;SDS011;58864;45.928;20.078;2022-07-30T06:18:20;13.80;;;7.53;;
71166;SDS011;58864;45.928;20.078;2022-07-30T06:20:45;17.88;;;8.10;;
71166;SDS011;58864;45.928;20.078;2022-07-30T06:23:09;12.40;;;7.40;;
71166;SDS011;58864;45.928;20.078;2022-07-30T06:25:34;13.80;;;7.43;;
71166;SDS011;58864;45.928;20.078;2022-07-30T06:27:58;12.67;;;7.50;;
71166;SDS011;58864;45.928;20.078;2022-07-30T06:30:23;13.50;;;7.63;;
71166;SDS011;58864;45.928;20.078;2022-07-30T06:32:47;12.60;;;6.90;;
71166;SDS011;58864;45.928;20.078;2022-07-30T06:35:12;11.80;;;7.28;;
71166;SDS011;58864;45.928;20.078;2022-07-30T06:37:37;12.13;;;7.03;;
71166;SDS011;58864;45.928;20.078;2022-07-30T06:40:02;13.40;;;7.30;;
71166;SDS011;58864;45.928;20.078;2022-07-30T06:42:27;13.80;;;7.43;;
71166;SDS011;58864;45.928;20.078;2022-07-30T06:44:52;11.73;;;7.13;;
71166;SDS011;58864;45.928;20.078;2022-07-30T06:47:20;13.47;;;7.53;;
71166;SDS011;58864;45.928;20.078;2022-07-30T06:49:54;13.88;;;8.07;;
71166;SDS011;58864;45.928;20.078;2022-07-30T06:52:19;16.23;;;7.57;;
71166;SDS011;58864;45.928;20.078;2022-07-30T06:54:44;13.20;;;7.13;;
71166;SDS011;58864;45.928;20.078;2022-07-30T06:57:09;12.43;;;7.35;;
71166;SDS011;58864;45.928;20.078;2022-07-30T06:59:34;16.73;;;7.83;;
71166;SDS011;58864;45.928;20.078;2022-07-30T07:01:58;15.35;;;7.75;;
71166;SDS011;58864;45.928;20.078;2022-07-30T07:04:23;12.10;;;7.50;;
71166;SDS011;58864;45.928;20.078;2022-07-30T07:06:47;10.43;;;6.87;;
71166;SDS011;58864;45.928;20.078;2022-07-30T07:09:11;12.77;;;7.17;;
71166;SDS011;58864;45.928;20.078;2022-07-30T07:11:36;12.03;;;7.27;;
71166;SDS011;58864;45.928;20.078;2022-07-30T07:14:00;11.77;;;7.20;;
71166;SDS011;58864;45.928;20.078;2022-07-30T07:16:25;12.77;;;7.30;;
71166;SDS011;58864;45.928;20.078;2022-07-30T07:18:50;12.95;;;7.72;;
71166;SDS011;58864;45.928;20.078;2022-07-30T07:21:15;11.13;;;7.40;;
71166;SDS011;58864;45.928;20.078;2022-07-30T07:23:39;13.50;;;7.40;;
71166;SDS011;58864;45.928;20.078;2022-07-30T07:26:04;11.37;;;7.23;;
71166;SDS011;58864;45.928;20.078;2022-07-30T07:28:28;12.90;;;7.30;;
71166;SDS011;58864;45.928;20.078;2022-07-30T07:30:53;12.73;;;7.45;;
71166;SDS011;58864;45.928;20.078;2022-07-30T07:33:18;12.73;;;7.40;;
71166;SDS011;58864;45.928;20.078;2022-07-30T07:35:42;14.13;;;8.32;;
71166;SDS011;58864;45.928;20.078;2022-07-30T07:38:07;14.87;;;7.70;;
71166;SDS011;58864;45.928;20.078;2022-07-30T07:40:31;13.20;;;7.70;;
71166;SDS011;58864;45.928;20.078;2022-07-30T07:42:55;16.17;;;7.90;;
71166;SDS011;58864;45.928;20.078;2022-07-30T07:45:20;14.90;;;7.85;;
71166;SDS011;58864;45.928;20.078;2022-07-30T07:47:45;11.53;;;7.97;;
71166;SDS011;58864;45.928;20.078;2022-07-30T07:50:12;13.07;;;7.28;;
71166;SDS011;58864;45.928;20.078;2022-07-30T07:52:38;13.88;;;7.95;;
71166;SDS011;58864;45.928;20.078;2022-07-30T07:55:03;15.67;;;8.43;;
71166;SDS011;58864;45.928;20.078;2022-07-30T07:57:27;13.30;;;7.60;;
71166;SDS011;58864;45.928;20.078;2022-07-30T07:59:52;11.75;;;7.07;;
71166;SDS011;58864;45.928;20.078;2022-07-30T08:02:18;11.67;;;7.20;;
71166;SDS011;58864;45.928;20.078;2022-07-30T08:04:42;10.93;;;7.60;;
71166;SDS011;58864;45.928;20.078;2022-07-30T08:07:08;14.98;;;8.32;;
71166;SDS011;58864;45.928;20.078;2022-07-30T08:09:32;12.43;;;8.37;;
71166;SDS011;58864;45.928;20.078;2022-07-30T08:11:57;11.27;;;7.77;;
71166;SDS011;58864;45.928;20.078;2022-07-30T08:14:21;11.13;;;7.28;;
71166;SDS011;58864;45.928;20.078;2022-07-30T08:16:46;13.57;;;8.13;;
71166;SDS011;58864;45.928;20.078;2022-07-30T08:19:11;13.18;;;8.15;;
71166;SDS011;58864;45.928;20.078;2022-07-30T08:21:42;12.27;;;7.67;;
71166;SDS011;58864;45.928;20.078;2022-07-30T08:24:09;12.32;;;8.25;;
71166;SDS011;58864;45.928;20.078;2022-07-30T08:26:34;13.57;;;8.37;;
71166;SDS011;58864;45.928;20.078;2022-07-30T08:28:58;11.85;;;7.80;;
71166;SDS011;58864;45.928;20.078;2022-07-30T08:31:23;13.00;;;7.67;;
71166;SDS011;58864;45.928;20.078;2022-07-30T08:33:47;13.23;;;7.17;;
71166;SDS011;58864;45.928;20.078;2022-07-30T08:36:12;12.37;;;7.60;;
71166;SDS011;58864;45.928;20.078;2022-07-30T08:38:37;11.53;;;7.70;;
71166;SDS011;58864;45.928;20.078;2022-07-30T08:41:02;15.95;;;7.88;;
71166;SDS011;58864;45.928;20.078;2022-07-30T08:43:26;16.63;;;7.80;;
71166;SDS011;58864;45.928;20.078;2022-07-30T08:45:52;11.77;;;7.20;;
71166;SDS011;58864;45.928;20.078;2022-07-30T08:48:19;14.52;;;7.50;;
71166;SDS011;58864;45.928;20.078;2022-07-30T08:50:45;10.95;;;7.10;;
71166;SDS011;58864;45.928;20.078;2022-07-30T08:53:09;9.53;;;7.17;;
71166;SDS011;58864;45.928;20.078;2022-07-30T08:55:34;16.77;;;7.87;;
71166;SDS011;58864;45.928;20.078;2022-07-30T08:57:58;10.52;;;7.13;;
71166;SDS011;58864;45.928;20.078;2022-07-30T09:00:23;11.93;;;7.53;;
71166;SDS011;58864;45.928;20.078;2022-07-30T09:02:47;12.30;;;7.10;;
71166;SDS011;58864;45.928;20.078;2022-07-30T09:05:12;11.20;;;6.18;;
71166;SDS011;58864;45.928;20.078;2022-07-30T09:07:37;10.93;;;7.05;;
71166;SDS011;58864;45.928;20.078;2022-07-30T09:10:03;11.10;;;7.10;;
71166;SDS011;58864;45.928;20.078;2022-07-30T09:12:41;8.68;;;6.43;;
71166;SDS011;58864;45.928;20.078;2022-07-30T09:20:32;10.30;;;6.50;;
71166;SDS011;58864;45.928;20.078;2022-07-30T09:22:58;11.43;;;6.93;;
71166;SDS011;58864;45.928;20.078;2022-07-30T09:25:41;12.80;;;6.97;;
71166;SDS011;58864;45.928;20.078;2022-07-30T09:28:08;9.73;;;6.57;;
71166;SDS011;58864;45.928;20.078;2022-07-30T09:30:47;9.60;;;6.45;;
71166;SDS011;58864;45.928;20.078;2022-07-30T09:33:29;10.53;;;7.03;;
71166;SDS011;58864;45.928;20.078;2022-07-30T09:35:56;12.52;;;7.47;;
71166;SDS011;58864;45.928;20.078;2022-07-30T09:38:21;13.63;;;7.32;;
71166;SDS011;58864;45.928;20.078;2022-07-30T09:40:49;12.37;;;8.20;;
71166;SDS011;58864;45.928;20.078;2022-07-30T09:43:15;11.93;;;6.82;;
71166;SDS011;58864;45.928;20.078;2022-07-30T09:45:49;12.60;;;7.78;;
71166;SDS011;58864;45.928;20.078;2022-07-30T09:48:19;11.68;;;7.50;;
71166;SDS011;58864;45.928;20.078;2022-07-30T09:50:48;10.95;;;7.70;;
71166;SDS011;58864;45.928;20.078;2022-07-30T09:53:14;11.60;;;8.13;;
71166;SDS011;58864;45.928;20.078;2022-07-30T09:55:38;17.60;;;8.45;;
71166;SDS011;58864;45.928;20.078;2022-07-30T09:58:03;15.17;;;8.97;;
71166;SDS011;58864;45.928;20.078;2022-07-30T10:00:29;16.02;;;8.55;;
71166;SDS011;58864;45.928;20.078;2022-07-30T10:02:56;21.17;;;9.23;;
71166;SDS011;58864;45.928;20.078;2022-07-30T10:05:21;25.73;;;10.52;;
71166;SDS011;58864;45.928;20.078;2022-07-30T10:10:18;21.17;;;11.38;;
71166;SDS011;58864;45.928;20.078;2022-07-30T10:12:44;17.27;;;9.77;;
71166;SDS011;58864;45.928;20.078;2022-07-30T10:15:09;15.70;;;10.52;;
71166;SDS011;58864;45.928;20.078;2022-07-30T10:17:34;15.57;;;10.40;;
71166;SDS011;58864;45.928;20.078;2022-07-30T10:20:01;18.85;;;9.60;;
71166;SDS011;58864;45.928;20.078;2022-07-30T10:22:26;15.93;;;10.55;;
71166;SDS011;58864;45.928;20.078;2022-07-30T10:24:51;17.00;;;9.48;;
71166;SDS011;58864;45.928;20.078;2022-07-30T10:27:17;16.70;;;10.53;;
71166;SDS011;58864;45.928;20.078;2022-07-30T10:29:41;17.73;;;10.60;;
71166;SDS011;58864;45.928;20.078;2022-07-30T10:32:06;18.13;;;10.68;;
71166;SDS011;58864;45.928;20.078;2022-07-30T10:34:31;19.20;;;11.70;;
71166;SDS011;58864;45.928;20.078;2022-07-30T10:36:56;17.10;;;10.90;;
71166;SDS011;58864;45.928;20.078;2022-07-30T10:39:25;15.82;;;10.95;;
71166;SDS011;58864;45.928;20.078;2022-07-30T10:44:19;21.53;;;13.47;;
71166;SDS011;58864;45.928;20.078;2022-07-30T10:47:24;22.33;;;13.48;;
71166;SDS011;58864;45.928;20.078;2022-07-30T10:52:46;30.00;;;17.57;;
71166;SDS011;58864;45.928;20.078;2022-07-30T10:55:16;27.30;;;17.85;;
71166;SDS011;58864;45.928;20.078;2022-07-30T11:00:28;33.17;;;17.27;;
71166;SDS011;58864;45.928;20.078;2022-07-30T11:03:39;23.95;;;15.52;;
71166;SDS011;58864;45.928;20.078;2022-07-30T11:05:42;29.23;;;17.07;;
71166;SDS011;58864;45.928;20.078;2022-07-30T11:16:18;20.52;;;13.48;;
71166;SDS011;58864;45.928;20.078;2022-07-30T11:22:24;19.45;;;12.20;;
71166;SDS011;58864;45.928;20.078;2022-07-30T11:27:51;12.77;;;8.57;;
71166;SDS011;58864;45.928;20.078;2022-07-30T11:32:42;11.90;;;7.70;;
71166;SDS011;58864;45.928;20.078;2022-07-30T11:45:41;10.90;;;5.40;;
71166;SDS011;58864;45.928;20.078;2022-07-30T11:48:10;13.95;;;8.85;;
71166;SDS011;58864;45.928;20.078;2022-07-30T11:50:36;14.03;;;10.10;;
71166;SDS011;58864;45.928;20.078;2022-07-30T11:53:05;13.98;;;8.57;;
71166;SDS011;58864;45.928;20.078;2022-07-30T11:55:32;12.75;;;7.90;;
71166;SDS011;58864;45.928;20.078;2022-07-30T11:58:00;12.52;;;7.25;;
71166;SDS011;58864;45.928;20.078;2022-07-30T12:01:01;10.85;;;6.55;;
71166;SDS011;58864;45.928;20.078;2022-07-30T12:03:21;9.77;;;5.30;;
71166;SDS011;58864;45.928;20.078;2022-07-30T12:05:48;10.95;;;6.35;;
71166;SDS011;58864;45.928;20.078;2022-07-30T12:08:13;11.27;;;5.88;;
71166;SDS011;58864;45.928;20.078;2022-07-30T12:10:39;14.23;;;7.13;;
71166;SDS011;58864;45.928;20.078;2022-07-30T12:13:07;9.70;;;6.20;;
71166;SDS011;58864;45.928;20.078;2022-07-30T12:15:38;14.30;;;6.60;;
71166;SDS011;58864;45.928;20.078;2022-07-30T12:18:06;11.45;;;5.70;;
71166;SDS011;58864;45.928;20.078;2022-07-30T12:20:34;13.00;;;6.60;;
71166;SDS011;58864;45.928;20.078;2022-07-30T12:22:58;9.93;;;5.93;;
71166;SDS011;58864;45.928;20.078;2022-07-30T12:25:23;11.40;;;6.93;;
71166;SDS011;58864;45.928;20.078;2022-07-30T12:27:48;9.97;;;6.33;;
71166;SDS011;58864;45.928;20.078;2022-07-30T12:30:13;9.23;;;5.65;;
71166;SDS011;58864;45.928;20.078;2022-07-30T12:32:39;10.40;;;6.10;;
71166;SDS011;58864;45.928;20.078;2022-07-30T12:35:03;12.00;;;6.30;;
71166;SDS011;58864;45.928;20.078;2022-07-30T12:37:28;8.98;;;5.60;;
71166;SDS011;58864;45.928;20.078;2022-07-30T12:40:09;8.87;;;5.57;;
71166;SDS011;58864;45.928;20.078;2022-07-30T12:42:36;10.63;;;5.60;;
71166;SDS011;58864;45.928;20.078;2022-07-30T12:45:01;9.98;;;5.07;;
71166;SDS011;58864;45.928;20.078;2022-07-30T12:47:27;8.90;;;5.17;;
71166;SDS011;58864;45.928;20.078;2022-07-30T12:49:53;8.13;;;4.72;;
71166;SDS011;58864;45.928;20.078;2022-07-30T12:52:20;7.78;;;4.45;;
71166;SDS011;58864;45.928;20.078;2022-07-30T12:54:55;7.50;;;4.32;;
71166;SDS011;58864;45.928;20.078;2022-07-30T12:57:27;7.82;;;4.53;;
71166;SDS011;58864;45.928;20.078;2022-07-30T13:00:17;9.07;;;4.57;;
71166;SDS011;58864;45.928;20.078;2022-07-30T13:02:41;7.85;;;4.38;;
71166;SDS011;58864;45.928;20.078;2022-07-30T13:05:06;8.17;;;5.30;;
71166;SDS011;58864;45.928;20.078;2022-07-30T13:07:31;9.73;;;4.72;;
71166;SDS011;58864;45.928;20.078;2022-07-30T13:10:05;7.67;;;4.43;;
71166;SDS011;58864;45.928;20.078;2022-07-30T13:12:31;8.85;;;5.05;;
71166;SDS011;58864;45.928;20.078;2022-07-30T13:14:55;8.17;;;5.27;;
71166;SDS011;58864;45.928;20.078;2022-07-30T13:17:20;8.10;;;5.30;;
71166;SDS011;58864;45.928;20.078;2022-07-30T13:19:44;8.53;;;5.30;;
71166;SDS011;58864;45.928;20.078;2022-07-30T13:22:09;9.07;;;5.50;;
71166;SDS011;58864;45.928;20.078;2022-07-30T13:24:33;9.05;;;5.53;;
71166;SDS011;58864;45.928;20.078;2022-07-30T13:26:58;9.37;;;5.10;;
71166;SDS011;58864;45.928;20.078;2022-07-30T13:29:22;8.47;;;5.50;;
71166;SDS011;58864;45.928;20.078;2022-07-30T13:31:46;8.00;;;4.75;;
71166;SDS011;58864;45.928;20.078;2022-07-30T13:34:11;8.40;;;5.13;;
71166;SDS011;58864;45.928;20.078;2022-07-30T13:36:35;8.13;;;5.33;;
71166;SDS011;58864;45.928;20.078;2022-07-30T13:39:00;8.60;;;5.00;;
71166;SDS011;58864;45.928;20.078;2022-07-30T13:41:24;8.50;;;5.43;;
71166;SDS011;58864;45.928;20.078;2022-07-30T13:43:49;8.90;;;5.70;;
71166;SDS011;58864;45.928;20.078;2022-07-30T13:46:13;9.70;;;6.47;;
71166;SDS011;58864;45.928;20.078;2022-07-30T13:48:37;11.35;;;5.97;;
71166;SDS011;58864;45.928;20.078;2022-07-30T13:51:02;9.53;;;5.90;;
71166;SDS011;58864;45.928;20.078;2022-07-30T13:53:28;8.48;;;5.90;;
71166;SDS011;58864;45.928;20.078;2022-07-30T13:55:53;9.43;;;5.95;;
71166;SDS011;58864;45.928;20.078;2022-07-30T13:58:17;9.40;;;5.53;;
71166;SDS011;58864;45.928;20.078;2022-07-30T14:00:42;10.07;;;6.10;;
71166;SDS011;58864;45.928;20.078;2022-07-30T14:03:08;9.32;;;6.45;;
71166;SDS011;58864;45.928;20.078;2022-07-30T14:05:36;9.10;;;5.88;;
71166;SDS011;58864;45.928;20.078;2022-07-30T14:08:02;10.20;;;5.90;;
71166;SDS011;58864;45.928;20.078;2022-07-30T14:10:27;9.30;;;5.40;;
71166;SDS011;58864;45.928;20.078;2022-07-30T14:12:52;10.73;;;6.22;;
71166;SDS011;58864;45.928;20.078;2022-07-30T14:15:21;10.38;;;5.85;;
71166;SDS011;58864;45.928;20.078;2022-07-30T14:17:47;8.87;;;5.43;;
71166;SDS011;58864;45.928;20.078;2022-07-30T14:20:11;7.28;;;4.65;;
71166;SDS011;58864;45.928;20.078;2022-07-30T14:22:36;8.07;;;4.87;;
71166;SDS011;58864;45.928;20.078;2022-07-30T14:25:00;9.27;;;5.70;;
71166;SDS011;58864;45.928;20.078;2022-07-30T14:27:25;7.30;;;4.57;;
71166;SDS011;58864;45.928;20.078;2022-07-30T14:29:50;7.20;;;4.30;;
71166;SDS011;58864;45.928;20.078;2022-07-30T14:32:15;8.35;;;4.40;;
71166;SDS011;58864;45.928;20.078;2022-07-30T14:34:39;9.70;;;4.27;;
71166;SDS011;58864;45.928;20.078;2022-07-30T14:37:04;6.82;;;4.25;;
71166;SDS011;58864;45.928;20.078;2022-07-30T14:39:28;8.37;;;4.17;;
71166;SDS011;58864;45.928;20.078;2022-07-30T14:41:53;6.78;;;3.78;;
71166;SDS011;58864;45.928;20.078;2022-07-30T14:44:19;6.63;;;2.80;;
71166;SDS011;58864;45.928;20.078;2022-07-30T14:46:43;7.20;;;3.85;;
71166;SDS011;58864;45.928;20.078;2022-07-30T14:49:08;6.40;;;3.47;;
71166;SDS011;58864;45.928;20.078;2022-07-30T14:51:32;5.88;;;2.75;;
71166;SDS011;58864;45.928;20.078;2022-07-30T14:53:57;6.23;;;3.60;;
71166;SDS011;58864;45.928;20.078;2022-07-30T14:56:21;6.77;;;3.47;;
71166;SDS011;58864;45.928;20.078;2022-07-30T14:58:48;9.68;;;3.35;;
71166;SDS011;58864;45.928;20.078;2022-07-30T15:01:12;6.23;;;3.23;;
71166;SDS011;58864;45.928;20.078;2022-07-30T15:03:36;5.87;;;3.47;;
71166;SDS011;58864;45.928;20.078;2022-07-30T15:06:01;5.77;;;3.20;;